createdAt,value
2022-10-10T00:01:37.046Z,6.88
2022-10-10T00:04:05.157Z,5.70
2022-10-10T00:06:33.500Z,4.20
2022-10-10T00:09:02.353Z,4.38
2022-10-10T00:11:30.478Z,5.32
2022-10-10T00:13:57.918Z,4.60
2022-10-10T00:16:25.804Z,6.88
2022-10-10T00:18:55.161Z,5.53
2022-10-10T00:21:23.025Z,5.63
2022-10-10T00:23:50.240Z,5.72
2022-10-10T00:26:19.384Z,6.68
2022-10-10T00:28:47.770Z,5.07
2022-10-10T00:31:17.790Z,4.75
2022-10-10T00:33:46.105Z,6.65
2022-10-10T00:36:14.193Z,7.97
2022-10-10T00:38:41.968Z,6.88
2022-10-10T00:41:09.566Z,7.63
2022-10-10T00:43:37.380Z,7.90
2022-10-10T00:46:07.324Z,10.63
2022-10-10T00:48:44.010Z,9.43
2022-10-10T00:51:19.498Z,6.03
2022-10-10T00:53:54.213Z,7.32
2022-10-10T00:56:26.659Z,6.93
2022-10-10T00:58:58.514Z,5.75
2022-10-10T01:01:26.391Z,5.15
2022-10-10T01:04:01.206Z,9.65
2022-10-10T01:06:29.707Z,6.75
2022-10-10T01:09:01.909Z,6.43
2022-10-10T01:11:47.318Z,8.98
2022-10-10T01:14:34.176Z,10.00
2022-10-10T01:17:11.094Z,5.68
2022-10-10T01:20:26.615Z,6.15
2022-10-10T01:23:27.700Z,7.38
2022-10-10T01:26:18.905Z,5.57
2022-10-10T01:29:17.550Z,5.78
2022-10-10T01:31:54.125Z,6.07
2022-10-10T01:34:33.958Z,6.18
2022-10-10T01:37:36.794Z,5.82
2022-10-10T01:40:18.085Z,5.80
2022-10-10T01:42:53.566Z,7.20
2022-10-10T01:45:25.452Z,6.20
2022-10-10T01:47:54.750Z,8.43
2022-10-10T01:50:27.805Z,6.32
2022-10-10T01:53:09.846Z,6.15
2022-10-10T01:55:54.760Z,5.47
2022-10-10T01:58:30.127Z,4.45
2022-10-10T02:01:02.894Z,5.20
2022-10-10T02:03:36.239Z,5.28
2022-10-10T02:06:37.940Z,5.90
2022-10-10T02:09:13.144Z,6.50
2022-10-10T02:11:41.789Z,6.78
2022-10-10T02:14:17.340Z,6.03
2022-10-10T02:16:50.110Z,6.78
2022-10-10T02:19:20.015Z,6.68
2022-10-10T02:21:48.968Z,7.78
2022-10-10T02:24:18.572Z,5.63
2022-10-10T02:26:52.561Z,8.57
2022-10-10T02:29:24.800Z,7.70
2022-10-10T02:32:10.403Z,7.72
2022-10-10T02:34:47.898Z,5.90
2022-10-10T02:37:16.233Z,6.30
2022-10-10T02:39:49.069Z,6.55
2022-10-10T02:42:21.112Z,5.75
2022-10-10T02:44:51.758Z,5.47
2022-10-10T02:47:19.109Z,5.55
2022-10-10T02:49:46.466Z,5.60
2022-10-10T02:52:16.949Z,5.95
2022-10-10T02:54:44.683Z,6.00
2022-10-10T02:57:12.890Z,7.30
2022-10-10T02:59:40.340Z,7.38
2022-10-10T03:02:08.069Z,5.30
2022-10-10T03:04:36.592Z,4.55
2022-10-10T03:07:06.909Z,5.40
2022-10-10T03:09:34.312Z,7.00
2022-10-10T03:12:04.488Z,6.90
2022-10-10T03:14:33.948Z,5.55
2022-10-10T03:17:01.232Z,5.50
2022-10-10T03:19:28.876Z,5.45
2022-10-10T03:21:56.127Z,5.82
2022-10-10T03:24:25.567Z,7.38
2022-10-10T03:26:55.184Z,7.80
2022-10-10T03:29:24.896Z,5.28
2022-10-10T03:31:54.533Z,4.88
2022-10-10T03:34:21.702Z,6.25
2022-10-10T03:36:48.917Z,5.72
2022-10-10T03:39:16.131Z,5.15
2022-10-10T03:41:43.806Z,4.95
2022-10-10T03:44:11.118Z,5.65
2022-10-10T03:46:43.034Z,7.72
2022-10-10T03:49:13.322Z,7.43
2022-10-10T03:51:43.360Z,6.07
2022-10-10T03:54:10.638Z,5.22
2022-10-10T03:56:40.036Z,5.05
2022-10-10T03:59:07.410Z,6.43
2022-10-10T04:01:37.182Z,5.88
2022-10-10T04:04:05.156Z,9.15
2022-10-10T04:06:32.892Z,6.65
2022-10-10T04:09:00.529Z,5.93
2022-10-10T04:11:27.737Z,5.35
2022-10-10T04:13:54.926Z,5.60
2022-10-10T04:16:22.841Z,5.22
2022-10-10T04:18:52.858Z,6.78
2022-10-10T04:21:20.059Z,4.53
2022-10-10T04:23:47.266Z,6.10
2022-10-10T04:26:14.502Z,6.15
2022-10-10T04:28:43.938Z,4.90
2022-10-10T04:31:13.388Z,8.43
2022-10-10T04:33:42.944Z,5.13
2022-10-10T04:36:10.151Z,7.32
2022-10-10T04:38:39.571Z,8.35
2022-10-10T04:41:07.288Z,6.22
2022-10-10T04:43:34.760Z,10.50
2022-10-10T04:46:04.121Z,8.65
2022-10-10T04:48:31.614Z,8.77
2022-10-10T04:50:59.725Z,7.53
2022-10-10T04:53:29.313Z,8.27
2022-10-10T04:55:59.090Z,6.43
2022-10-10T04:58:26.949Z,6.72
2022-10-10T05:00:57.322Z,9.70
2022-10-10T05:03:25.955Z,7.43
2022-10-10T05:05:55.843Z,8.80
2022-10-10T05:08:25.290Z,8.85
2022-10-10T05:10:54.994Z,5.80
2022-10-10T05:13:22.157Z,6.07
2022-10-10T05:15:56.007Z,5.50
2022-10-10T05:18:23.886Z,5.55
2022-10-10T05:20:51.703Z,5.53
2022-10-10T05:23:21.133Z,6.03
2022-10-10T05:25:50.645Z,5.00
2022-10-10T05:28:18.802Z,4.25
2022-10-10T05:30:53.104Z,3.83
2022-10-10T05:33:22.516Z,5.75
2022-10-10T05:35:50.218Z,3.55
2022-10-10T05:38:22.546Z,5.90
2022-10-10T05:40:56.475Z,4.05
2022-10-10T05:43:23.716Z,5.82
2022-10-10T05:45:51.549Z,5.20
2022-10-10T05:48:19.220Z,4.03
2022-10-10T05:50:49.271Z,5.30
2022-10-10T05:53:19.183Z,7.10
2022-10-10T05:55:46.583Z,6.05
2022-10-10T05:58:14.125Z,4.07
2022-10-10T06:00:43.269Z,4.78
2022-10-10T06:03:14.051Z,4.13
2022-10-10T06:05:41.970Z,5.90
2022-10-10T06:08:11.829Z,6.20
2022-10-10T06:10:45.490Z,6.35
2022-10-10T06:13:23.081Z,5.50
2022-10-10T06:15:52.238Z,5.43
2022-10-10T06:18:19.449Z,4.53
2022-10-10T06:20:49.492Z,7.13
2022-10-10T06:23:21.835Z,3.92
2022-10-10T06:25:52.308Z,5.55
2022-10-10T06:28:21.023Z,6.30
2022-10-10T06:30:49.277Z,8.32
2022-10-10T06:33:19.110Z,9.25
2022-10-10T06:35:51.440Z,7.70
2022-10-10T06:38:21.218Z,9.80
2022-10-10T06:40:55.659Z,9.75
2022-10-10T06:43:27.808Z,8.07
2022-10-10T06:45:55.073Z,6.95
2022-10-10T06:48:25.666Z,8.15
2022-10-10T06:51:01.627Z,7.95
2022-10-10T06:53:31.559Z,10.88
2022-10-10T06:56:00.028Z,7.50
2022-10-10T06:58:32.001Z,7.93
2022-10-10T07:01:02.101Z,7.18
2022-10-10T07:03:31.374Z,9.20
2022-10-10T07:06:01.638Z,11.40
2022-10-10T07:08:29.884Z,6.00
2022-10-10T07:10:59.318Z,13.02
2022-10-10T07:13:28.764Z,9.10
2022-10-10T07:15:55.978Z,5.35
2022-10-10T07:18:23.634Z,6.30
2022-10-10T07:20:51.824Z,9.85
2022-10-10T07:23:24.262Z,11.32
2022-10-10T07:26:03.090Z,7.50
2022-10-10T07:28:30.341Z,9.00
2022-10-10T07:31:03.043Z,6.18
2022-10-10T07:33:34.998Z,11.50
2022-10-10T07:36:06.672Z,6.40
2022-10-10T07:38:35.571Z,7.07
2022-10-10T07:41:23.816Z,7.93
2022-10-10T07:43:55.939Z,7.38
2022-10-10T07:46:23.804Z,6.65
2022-10-10T07:48:51.079Z,6.43
2022-10-10T07:51:18.388Z,8.40
2022-10-10T07:53:48.818Z,8.23
2022-10-10T07:56:16.051Z,5.32
2022-10-10T07:58:43.788Z,6.05
2022-10-10T08:01:12.953Z,11.65
2022-10-10T08:03:41.557Z,7.22
2022-10-10T08:06:14.904Z,8.57
2022-10-10T08:08:50.713Z,9.93
2022-10-10T08:11:19.808Z,4.72
2022-10-10T08:13:47.192Z,7.78
2022-10-10T08:16:14.534Z,6.60
2022-10-10T08:18:41.745Z,11.00
2022-10-10T08:21:11.846Z,6.53
2022-10-10T08:23:39.077Z,9.18
2022-10-10T08:26:08.691Z,5.38
2022-10-10T08:28:37.379Z,7.07
2022-10-10T08:31:06.586Z,7.25
2022-10-10T08:33:37.107Z,4.78
2022-10-10T08:36:08.508Z,8.25
2022-10-10T08:38:38.320Z,6.40
2022-10-10T08:41:18.400Z,8.25
2022-10-10T08:43:52.034Z,10.15
2022-10-10T08:46:29.532Z,5.35
2022-10-10T08:48:58.112Z,11.32
2022-10-10T08:51:33.587Z,8.55
2022-10-10T08:54:06.882Z,5.65
2022-10-10T08:56:35.430Z,7.53
2022-10-10T08:59:15.082Z,7.22
2022-10-10T09:02:17.616Z,4.80
2022-10-10T09:04:35.837Z,4.38
2022-10-10T09:07:19.085Z,5.75
2022-10-10T09:09:55.053Z,9.35
2022-10-10T09:12:49.418Z,8.00
2022-10-10T09:15:33.680Z,4.70
2022-10-10T09:18:06.871Z,4.68
2022-10-10T09:21:04.204Z,5.13
2022-10-10T09:23:43.722Z,8.18
2022-10-10T09:26:17.895Z,6.32
2022-10-10T09:28:59.272Z,8.30
2022-10-10T09:31:33.601Z,5.53
2022-10-10T09:34:33.465Z,6.32
2022-10-10T09:37:02.776Z,7.45
2022-10-10T09:40:01.568Z,7.38
2022-10-10T09:42:35.598Z,6.72
2022-10-10T09:45:04.349Z,6.65
2022-10-10T09:47:33.887Z,9.75
2022-10-10T09:50:01.553Z,6.97
2022-10-10T09:52:31.413Z,8.88
2022-10-10T09:55:05.501Z,6.55
2022-10-10T09:57:42.617Z,4.65
2022-10-10T10:00:26.438Z,6.75
2022-10-10T10:03:15.097Z,4.93
2022-10-10T10:05:48.401Z,5.93
2022-10-10T10:08:37.520Z,6.85
2022-10-10T10:11:05.813Z,7.38
2022-10-10T10:13:37.560Z,3.50
2022-10-10T10:16:11.534Z,5.32
2022-10-10T10:18:43.807Z,8.02
2022-10-10T10:21:23.608Z,4.93
2022-10-10T10:24:00.767Z,6.95
2022-10-10T10:26:47.715Z,5.13
2022-10-10T10:29:34.298Z,6.10
2022-10-10T10:32:30.483Z,3.78
2022-10-10T10:35:17.825Z,5.40
2022-10-10T10:37:51.460Z,6.93
2022-10-10T10:40:39.762Z,5.90
2022-10-10T10:43:51.599Z,3.88
2022-10-10T10:46:39.759Z,3.78
2022-10-10T10:49:14.594Z,9.02
2022-10-10T10:52:05.515Z,4.45
2022-10-10T10:54:39.549Z,6.25
2022-10-10T11:00:41.235Z,5.47
2022-10-10T11:05:22.999Z,5.85
2022-10-10T11:06:42.081Z,6.88
2022-10-10T11:09:49.628Z,6.47
2022-10-10T11:12:48.864Z,7.85
2022-10-10T11:16:04.970Z,5.03
2022-10-10T11:18:27.893Z,11.10
2022-10-10T11:21:04.498Z,6.53
2022-10-10T11:23:39.330Z,8.48
2022-10-10T11:26:26.562Z,11.20
2022-10-10T11:29:21.467Z,8.00
2022-10-10T11:32:06.815Z,7.28
2022-10-10T11:34:43.160Z,4.95
2022-10-10T11:37:29.254Z,8.32
2022-10-10T11:40:02.145Z,7.22
2022-10-10T11:42:56.355Z,7.38
2022-10-10T11:45:28.617Z,6.90
2022-10-10T11:48:15.650Z,6.07
2022-10-10T11:50:44.461Z,5.28
2022-10-10T11:53:40.092Z,7.70
2022-10-10T11:56:32.574Z,7.00
2022-10-10T11:59:13.730Z,8.43
2022-10-10T12:01:50.295Z,11.73
2022-10-10T12:04:18.393Z,8.90
2022-10-10T12:07:08.564Z,7.55
2022-10-10T12:09:42.279Z,10.88
2022-10-10T12:12:15.371Z,5.28
2022-10-10T12:14:53.827Z,4.22
2022-10-10T12:17:26.908Z,5.68
2022-10-10T12:19:54.269Z,6.07
2022-10-10T12:22:30.682Z,6.25
2022-10-10T12:25:35.031Z,5.80
2022-10-10T12:28:18.546Z,7.75
2022-10-10T12:31:01.438Z,5.70
2022-10-10T12:33:41.969Z,5.93
2022-10-10T12:36:55.665Z,3.60
2022-10-10T12:39:28.410Z,4.87
2022-10-10T12:41:56.677Z,6.20
2022-10-10T12:44:39.008Z,5.25
2022-10-10T12:47:46.240Z,4.18
2022-10-10T12:50:26.330Z,10.30
2022-10-10T12:52:59.965Z,5.68
2022-10-10T12:55:39.824Z,2.88
2022-10-10T12:58:26.688Z,7.55
2022-10-10T13:01:06.444Z,8.27
2022-10-10T13:03:45.509Z,9.23
2022-10-10T13:06:43.436Z,5.07
2022-10-10T13:09:28.042Z,3.58
2022-10-10T13:12:08.500Z,5.03
2022-10-10T13:14:42.408Z,4.85
2022-10-10T13:17:41.809Z,6.72
2022-10-10T13:20:37.249Z,9.02
2022-10-10T13:23:13.787Z,9.38
2022-10-10T13:25:47.523Z,5.00
2022-10-10T13:28:20.288Z,6.93
2022-10-10T13:30:49.915Z,5.22
2022-10-10T13:33:34.005Z,4.03
2022-10-10T13:36:09.189Z,7.20
2022-10-10T13:38:36.489Z,8.15
2022-10-10T13:41:07.021Z,6.20
2022-10-10T13:43:36.538Z,5.07
2022-10-10T13:46:04.260Z,8.63
2022-10-10T13:48:42.526Z,10.20
2022-10-10T13:51:16.483Z,7.75
2022-10-10T13:53:57.214Z,10.43
2022-10-10T13:56:30.903Z,8.20
2022-10-10T13:59:13.118Z,7.60
2022-10-10T14:01:59.507Z,8.98
2022-10-10T14:04:44.696Z,7.45
2022-10-10T14:07:16.746Z,9.95
2022-10-10T14:09:59.751Z,7.78
2022-10-10T14:12:41.335Z,9.73
2022-10-10T14:15:43.525Z,5.85
2022-10-10T14:18:24.085Z,12.45
2022-10-10T14:20:53.312Z,8.60
2022-10-10T14:23:20.595Z,9.32
2022-10-10T14:25:49.496Z,10.48
2022-10-10T14:28:26.647Z,13.68
2022-10-10T14:30:56.458Z,10.95
2022-10-10T14:33:23.988Z,9.73
2022-10-10T14:35:53.081Z,9.75
2022-10-10T14:38:20.719Z,9.88
2022-10-10T14:40:51.354Z,12.68
2022-10-10T14:43:20.563Z,9.48
2022-10-10T14:45:49.956Z,10.15
2022-10-10T14:48:23.648Z,10.25
2022-10-10T14:50:51.364Z,9.75
2022-10-10T14:53:19.592Z,12.63
2022-10-10T14:55:47.363Z,12.13
2022-10-10T14:58:18.528Z,12.55
2022-10-10T15:00:48.672Z,8.70
2022-10-10T15:03:16.380Z,6.22
2022-10-10T15:05:46.165Z,13.50
2022-10-10T15:08:15.683Z,10.68
2022-10-10T15:10:46.139Z,4.70
2022-10-10T15:13:14.314Z,5.82
2022-10-10T15:15:41.851Z,8.00
2022-10-10T15:18:39.587Z,3.05
2022-10-10T15:21:09.175Z,8.95
2022-10-10T15:23:36.403Z,10.32
2022-10-10T15:26:09.193Z,7.00
2022-10-10T15:28:38.897Z,6.88
2022-10-10T15:31:07.153Z,4.40
2022-10-10T15:33:35.001Z,5.03
2022-10-10T15:36:10.411Z,4.47
2022-10-10T15:38:38.923Z,3.17
2022-10-10T15:41:10.750Z,6.47
2022-10-10T15:43:54.627Z,4.95
2022-10-10T15:46:24.137Z,5.25
2022-10-10T15:48:51.820Z,4.43
2022-10-10T15:51:20.323Z,3.33
2022-10-10T15:53:52.024Z,2.55
2022-10-10T15:56:23.935Z,2.88
2022-10-10T15:58:57.367Z,4.85
2022-10-10T16:03:54.167Z,2.47
2022-10-10T16:06:22.601Z,3.47
2022-10-10T16:08:55.883Z,3.67
2022-10-10T16:11:36.544Z,1.92
2022-10-10T16:14:03.730Z,1.58
2022-10-10T16:16:33.615Z,2.83
2022-10-10T16:19:01.398Z,2.63
2022-10-10T16:21:29.819Z,5.18
2022-10-10T16:23:58.259Z,3.78
2022-10-10T16:26:33.028Z,2.22
2022-10-10T16:29:02.067Z,2.10
2022-10-10T16:31:31.123Z,3.03
2022-10-10T16:33:59.340Z,2.72
2022-10-10T16:36:32.350Z,2.72
2022-10-10T16:39:00.452Z,3.97
2022-10-10T16:41:46.943Z,2.42
2022-10-10T16:44:15.346Z,2.72
2022-10-10T16:46:42.576Z,5.72
2022-10-10T16:49:16.278Z,5.60
2022-10-10T16:51:46.090Z,2.88
2022-10-10T16:54:13.320Z,6.97
2022-10-10T16:56:43.370Z,3.60
2022-10-10T16:59:10.647Z,6.28
2022-10-10T17:01:38.527Z,5.10
2022-10-10T17:04:08.831Z,6.05
2022-10-10T17:06:39.078Z,4.00
2022-10-10T17:09:11.502Z,5.85
2022-10-10T17:11:39.314Z,7.82
2022-10-10T17:14:07.147Z,9.85
2022-10-10T17:17:07.110Z,5.57
2022-10-10T17:19:21.988Z,6.13
2022-10-10T17:21:49.744Z,3.90
2022-10-10T17:24:19.628Z,11.43
2022-10-10T17:26:47.701Z,5.00
2022-10-10T17:29:17.360Z,9.75
2022-10-10T17:31:47.647Z,9.13
2022-10-10T17:34:17.328Z,4.85
2022-10-10T17:36:44.557Z,6.32
2022-10-10T17:39:13.362Z,7.25
2022-10-10T17:41:41.135Z,5.13
2022-10-10T17:44:10.799Z,5.00
2022-10-10T17:46:38.881Z,5.60
2022-10-10T17:49:08.172Z,7.38
2022-10-10T17:51:36.628Z,15.18
2022-10-10T17:54:09.912Z,6.25
2022-10-10T17:56:40.770Z,4.88
2022-10-10T17:59:08.193Z,4.55
2022-10-10T18:01:36.950Z,9.15
2022-10-10T18:04:04.948Z,8.20
2022-10-10T18:06:33.068Z,6.18
2022-10-10T18:09:00.994Z,7.78
2022-10-10T18:11:30.419Z,6.55
2022-10-10T18:14:00.685Z,11.45
2022-10-10T18:16:36.172Z,5.45
2022-10-10T18:19:05.895Z,7.90
2022-10-10T18:21:34.568Z,7.57
2022-10-10T18:24:04.159Z,7.00
2022-10-10T18:26:31.952Z,9.63
2022-10-10T18:28:59.438Z,7.63
2022-10-10T18:31:35.491Z,12.88
2022-10-10T18:34:06.533Z,8.68
2022-10-10T18:36:40.595Z,13.70
2022-10-10T18:39:12.179Z,14.20
2022-10-10T18:41:40.717Z,11.98
2022-10-10T18:44:14.393Z,8.10
2022-10-10T18:46:42.269Z,9.70
2022-10-10T18:49:13.485Z,8.63
2022-10-10T18:51:43.827Z,7.32
2022-10-10T18:54:16.744Z,3.78
2022-10-10T18:56:44.849Z,8.32
2022-10-10T18:59:22.196Z,8.55
2022-10-10T19:01:52.596Z,5.47
2022-10-10T19:04:22.850Z,8.18
2022-10-10T19:06:54.712Z,8.68
2022-10-10T19:09:24.337Z,4.05
2022-10-10T19:11:53.446Z,8.35
2022-10-10T19:14:23.782Z,6.97
2022-10-10T19:16:55.984Z,6.75
2022-10-10T19:19:23.954Z,8.30
2022-10-10T19:21:51.788Z,5.25
2022-10-10T19:24:22.411Z,5.38
2022-10-10T19:26:53.102Z,7.32
2022-10-10T19:29:21.065Z,4.53
2022-10-10T19:31:48.328Z,4.22
2022-10-10T19:34:15.578Z,5.82
2022-10-10T19:36:45.467Z,6.80
2022-10-10T19:39:15.118Z,7.32
2022-10-10T19:41:42.875Z,9.25
2022-10-10T19:44:10.193Z,9.63
2022-10-10T19:46:37.933Z,11.00
2022-10-10T19:49:05.875Z,11.25
2022-10-10T19:51:35.293Z,8.80
2022-10-10T19:54:03.072Z,8.13
2022-10-10T19:56:30.486Z,7.88
2022-10-10T19:59:00.379Z,9.38
2022-10-10T20:01:30.319Z,8.27
2022-10-10T20:04:01.213Z,9.27
2022-10-10T20:06:28.657Z,7.35
2022-10-10T20:08:56.157Z,8.60
2022-10-10T20:11:24.183Z,10.82
2022-10-10T20:13:57.448Z,8.90
2022-10-10T20:16:28.076Z,9.38
2022-10-10T20:18:58.000Z,10.70
2022-10-10T20:21:33.296Z,11.68
2022-10-10T20:24:06.814Z,10.27
2022-10-10T20:29:02.904Z,9.68
2022-10-10T20:31:33.116Z,8.27
2022-10-10T20:34:05.932Z,10.48
2022-10-10T20:36:35.084Z,13.73
2022-10-10T20:39:08.208Z,16.17
2022-10-10T20:41:38.369Z,9.30
2022-10-10T20:44:09.746Z,13.88
2022-10-10T20:46:39.295Z,13.10
2022-10-10T20:49:11.406Z,12.23
2022-10-10T20:51:40.571Z,15.88
2022-10-10T20:54:08.306Z,14.90
2022-10-10T20:56:36.037Z,18.85
2022-10-10T20:59:07.272Z,14.02
2022-10-10T21:01:37.321Z,15.10
2022-10-10T21:04:07.911Z,15.85
2022-10-10T21:06:36.958Z,15.93
2022-10-10T21:09:07.592Z,12.70
2022-10-10T21:11:35.386Z,12.60
2022-10-10T21:14:05.781Z,12.05
2022-10-10T21:16:35.936Z,9.80
2022-10-10T21:19:05.805Z,15.10
2022-10-10T21:21:35.017Z,12.13
2022-10-10T21:24:07.528Z,11.82
2022-10-10T21:26:40.167Z,11.10
2022-10-10T21:29:07.476Z,9.73
2022-10-10T21:31:37.858Z,12.40
2022-10-10T21:34:07.127Z,12.65
2022-10-10T21:36:35.993Z,9.70
2022-10-10T21:39:06.866Z,11.10
2022-10-10T21:41:35.348Z,11.30
2022-10-10T21:44:04.974Z,10.43
2022-10-10T21:46:36.799Z,13.68
2022-10-10T21:49:06.940Z,9.45
2022-10-10T21:51:40.295Z,8.77
2022-10-10T21:54:10.685Z,6.97
2022-10-10T21:56:38.296Z,8.40
2022-10-10T21:59:06.363Z,11.05
2022-10-10T22:01:38.335Z,8.95
2022-10-10T22:04:08.269Z,7.50
2022-10-10T22:06:35.582Z,10.68
2022-10-10T22:09:03.692Z,8.23
2022-10-10T22:11:34.282Z,7.45
2022-10-10T22:14:02.856Z,10.48
2022-10-10T22:16:33.912Z,10.10
2022-10-10T22:19:04.269Z,6.38
2022-10-10T22:21:33.207Z,6.13
2022-10-10T22:24:05.805Z,7.03
2022-10-10T22:26:36.153Z,8.35
2022-10-10T22:29:05.007Z,9.68
2022-10-10T22:31:32.410Z,7.05
2022-10-10T22:34:00.080Z,7.72
2022-10-10T22:36:29.956Z,11.27
2022-10-10T22:38:57.690Z,11.23
2022-10-10T22:41:27.707Z,6.93
2022-10-10T22:43:55.332Z,8.15
2022-10-10T22:46:22.591Z,6.63
2022-10-10T22:48:49.907Z,9.57
2022-10-10T22:51:18.650Z,7.72
2022-10-10T22:53:47.576Z,7.82
2022-10-10T22:56:17.380Z,8.43
2022-10-10T22:58:44.685Z,7.00
2022-10-10T23:01:15.598Z,6.47
2022-10-10T23:03:45.961Z,7.32
2022-10-10T23:06:13.831Z,9.05
2022-10-10T23:08:41.102Z,6.18
2022-10-10T23:11:08.331Z,6.07
2022-10-10T23:13:38.000Z,7.28
2022-10-10T23:16:05.887Z,9.07
2022-10-10T23:18:33.596Z,8.25
2022-10-10T23:21:00.817Z,6.68
2022-10-10T23:23:28.190Z,8.98
2022-10-10T23:25:55.546Z,7.88
2022-10-10T23:28:25.216Z,9.82
2022-10-10T23:30:52.865Z,12.52
2022-10-10T23:33:20.087Z,12.43
2022-10-10T23:35:57.953Z,9.90
2022-10-10T23:38:26.161Z,10.32
2022-10-10T23:40:54.081Z,9.23
2022-10-10T23:43:22.305Z,9.80
2022-10-10T23:45:50.248Z,10.77
2022-10-10T23:48:18.042Z,6.40
2022-10-10T23:50:47.512Z,4.78
2022-10-10T23:53:14.730Z,6.97
2022-10-10T23:55:41.910Z,8.00
2022-10-10T23:58:09.589Z,5.80
